Time;durP1;ratioP1;P1;durP2;ratioP2;P2;SDS_P1;SDS_P2;PMS_P1;PMS_P2;Temp;Humidity;BMP_temperature;BMP_pressure;BME280_temperature;BME280_humidity;BME280_pressure;Samples;Min_cycle;Max_cycle;Signal;HPM_P1;HPM_P2
2024/02/14 00:00:41;;;;;;;34.80;6.80;;;;;;;1.80;100.00;101072.25;5119507;28;20043;-68
2024/02/14 00:03:06;;;;;;;47.20;6.65;;;;;;;1.81;100.00;101078.38;5119794;28;20415;-65
2024/02/14 00:05:32;;;;;;;51.08;6.88;;;;;;;1.72;100.00;101058.78;5119084;28;20080;-66
2024/02/14 00:07:57;;;;;;;57.33;7.55;;;;;;;1.81;100.00;101071.25;5119681;28;20031;-65
2024/02/14 00:10:23;;;;;;;50.20;5.75;;;;;;;1.74;100.00;101061.31;5119246;28;20032;-67
2024/02/14 00:12:49;;;;;;;42.03;6.20;;;;;;;1.76;100.00;101062.03;5119472;28;20030;-68
2024/02/14 00:15:14;;;;;;;51.28;6.50;;;;;;;1.77;100.00;101064.53;5118929;28;20024;-65
2024/02/14 00:17:40;;;;;;;42.88;6.65;;;;;;;1.53;100.00;101027.78;5120096;28;20038;-66
2024/02/14 00:20:06;;;;;;;39.47;6.40;;;;;;;1.65;100.00;101049.72;5120234;28;20498;-66
2024/02/14 00:22:32;;;;;;;44.60;5.45;;;;;;;1.75;100.00;101065.66;5120751;28;20057;-66
2024/02/14 00:24:57;;;;;;;48.20;6.15;;;;;;;1.61;100.00;101046.47;5120089;28;20023;-67
2024/02/14 00:27:24;;;;;;;52.25;6.55;;;;;;;1.70;100.00;101066.06;5118442;28;20023;-67
2024/02/14 00:29:49;;;;;;;58.67;6.68;;;;;;;1.68;100.00;101062.69;5118424;28;20023;-67
2024/02/14 00:32:15;;;;;;;40.88;5.45;;;;;;;1.67;100.00;101070.81;5118745;28;20497;-66
2024/02/14 00:34:40;;;;;;;46.83;5.65;;;;;;;1.61;100.00;101056.25;5118260;28;20023;-66
2024/02/14 00:37:08;;;;;;;46.55;5.78;;;;;;;1.51;100.00;101042.13;5101336;28;20028;-66
2024/02/14 00:39:33;;;;;;;42.35;5.28;;;;;;;1.56;100.00;101054.03;5118185;28;20058;-66
2024/02/14 00:41:59;;;;;;;45.42;6.07;;;;;;;1.47;100.00;101048.69;5100940;28;20091;-67
2024/02/14 00:44:24;;;;;;;42.40;5.80;;;;;;;1.56;100.00;101067.28;5117188;28;20034;-66
2024/02/14 00:46:56;;;;;;;28.55;4.90;;;;;;;1.55;100.00;101060.28;5116641;28;20027;-66
2024/02/14 00:49:21;;;;;;;46.58;5.97;;;;;;;1.56;100.00;101072.59;5118607;28;20028;-66
2024/02/14 00:51:47;;;;;;;40.65;5.05;;;;;;;1.53;100.00;101069.38;5118586;28;20027;-67
2024/02/14 00:54:12;;;;;;;39.10;5.57;;;;;;;1.55;100.00;101075.34;5116875;28;20050;-67
2024/02/14 00:56:38;;;;;;;37.67;4.97;;;;;;;1.52;100.00;101067.66;5118186;28;20073;-67
2024/02/14 00:59:03;;;;;;;42.00;4.80;;;;;;;1.55;100.00;101062.09;5117100;28;20043;-66
2024/02/14 01:01:29;;;;;;;33.55;5.00;;;;;;;1.48;100.00;101051.19;5117766;28;20063;-66
2024/02/14 01:03:54;;;;;;;38.33;4.85;;;;;;;1.59;100.00;101067.03;5082860;28;20028;-67
2024/02/14 01:06:20;;;;;;;36.80;5.20;;;;;;;1.60;100.00;101060.72;5118096;28;20059;-67
2024/02/14 01:08:45;;;;;;;32.55;5.05;;;;;;;1.62;100.00;101069.41;5118622;28;20024;-66
2024/02/14 01:11:12;;;;;;;43.05;5.25;;;;;;;1.63;100.00;101072.88;5118202;28;20073;-66
2024/02/14 01:13:38;;;;;;;30.48;5.05;;;;;;;1.11;100.00;100998.72;5117470;28;20031;-67
2024/02/14 01:16:07;;;;;;;39.30;4.68;;;;;;;1.62;100.00;101071.19;5117018;28;20046;-66
2024/02/14 01:18:33;;;;;;;31.00;4.53;;;;;;;1.64;100.00;101066.59;5118989;28;20019;-67
2024/02/14 01:21:01;;;;;;;31.65;4.82;;;;;;;1.61;100.00;101064.22;5119903;28;20030;-67
2024/02/14 01:23:27;;;;;;;39.20;4.72;;;;;;;1.65;100.00;101065.63;5120190;28;20436;-67
2024/02/14 01:25:54;;;;;;;36.92;4.50;;;;;;;1.62;100.00;101064.09;5116948;28;20028;-66
2024/02/14 01:28:20;;;;;;;34.67;4.95;;;;;;;1.67;100.00;101073.47;5116525;28;20077;-67
2024/02/14 01:30:45;;;;;;;38.40;5.03;;;;;;;1.66;100.00;101075.28;5117714;28;20032;-67
2024/02/14 01:33:10;;;;;;;34.67;4.93;;;;;;;1.66;100.00;101080.59;5118569;28;20095;-67
2024/02/14 01:35:36;;;;;;;32.08;4.75;;;;;;;1.64;100.00;101082.53;5119276;28;20032;-68
2024/02/14 01:38:02;;;;;;;38.80;5.05;;;;;;;1.64;100.00;101077.22;5118162;28;20448;-67
2024/02/14 01:40:28;;;;;;;42.55;4.25;;;;;;;1.63;100.00;101083.50;5119290;28;20042;-67
2024/02/14 01:42:55;;;;;;;32.75;3.75;;;;;;;1.61;100.00;101075.66;5118529;28;20019;-67
2024/02/14 01:45:21;;;;;;;35.00;4.18;;;;;;;1.66;100.00;101075.28;5118646;28;20047;-67
2024/02/14 01:47:47;;;;;;;30.85;3.67;;;;;;;1.63;100.00;101073.72;5118348;28;20086;-67
2024/02/14 01:50:13;;;;;;;23.08;4.03;;;;;;;1.69;100.00;101075.00;5117482;28;20031;-67
2024/02/14 01:52:39;;;;;;;34.38;3.63;;;;;;;1.60;100.00;101057.25;5121788;28;20038;-67
2024/02/14 01:55:07;;;;;;;33.80;3.75;;;;;;;1.75;100.00;101076.25;5122340;28;20527;-67
2024/02/14 01:57:34;;;;;;;34.58;3.95;;;;;;;1.75;100.00;101078.91;5122384;28;20092;-67
2024/02/14 02:00:04;;;;;;;38.42;4.40;;;;;;;1.71;100.00;101083.66;5122413;28;20496;-66
2024/02/14 02:02:30;;;;;;;36.50;4.40;;;;;;;1.70;100.00;101079.34;5122336;27;20023;-66
2024/02/14 02:04:55;;;;;;;28.63;3.22;;;;;;;1.70;100.00;101073.19;5124094;28;20034;-70
2024/02/14 02:07:20;;;;;;;28.20;3.35;;;;;;;1.67;100.00;101082.25;5125884;28;20042;-67
2024/02/14 02:09:46;;;;;;;23.73;3.05;;;;;;;1.66;100.00;101085.88;5127101;28;20024;-68
2024/02/14 02:12:12;;;;;;;31.80;4.25;;;;;;;1.59;100.00;101079.41;5127765;27;20028;-68
2024/02/14 02:14:37;;;;;;;27.88;3.42;;;;;;;1.64;100.00;101080.69;5127519;28;20016;-69
2024/02/14 02:17:07;;;;;;;29.00;3.67;;;;;;;1.68;100.00;101075.97;5125931;28;20031;-67
2024/02/14 02:19:33;;;;;;;32.10;4.10;;;;;;;1.69;100.00;101087.41;5121225;28;20131;-67
2024/02/14 02:21:59;;;;;;;27.40;3.35;;;;;;;1.71;100.00;101085.47;5120877;28;20036;-67
2024/02/14 02:24:25;;;;;;;30.30;3.55;;;;;;;1.69;100.00;101085.63;5121617;28;20035;-67
2024/02/14 02:26:50;;;;;;;31.83;3.75;;;;;;;1.68;100.00;101086.56;5120312;28;20035;-67
2024/02/14 02:29:16;;;;;;;35.55;4.30;;;;;;;1.64;100.00;101079.88;5120668;28;20173;-67
2024/02/14 02:31:41;;;;;;;29.67;3.65;;;;;;;1.51;100.00;101066.00;5121696;28;20024;-68
2024/02/14 02:34:10;;;;;;;30.60;3.95;;;;;;;1.60;100.00;101078.47;5103455;28;20023;-68
2024/02/14 02:36:37;;;;;;;30.85;3.78;;;;;;;1.58;100.00;101083.88;5120242;28;20504;-67
2024/02/14 02:39:04;;;;;;;28.17;3.67;;;;;;;1.55;100.00;101078.00;5120152;28;20465;-68
2024/02/14 02:41:31;;;;;;;28.80;4.03;;;;;;;1.55;100.00;101083.31;5121013;28;20453;-68
2024/02/14 02:43:57;;;;;;;31.27;3.85;;;;;;;1.51;100.00;101081.91;5120856;28;20083;-67
2024/02/14 02:46:22;;;;;;;29.58;4.28;;;;;;;1.28;100.00;101057.38;5119870;28;20054;-68
2024/02/14 02:48:48;;;;;;;33.40;4.00;;;;;;;1.46;100.00;101082.31;5121359;28;20028;-67
2024/02/14 02:51:16;;;;;;;30.92;3.92;;;;;;;1.47;100.00;101091.94;5119773;28;20031;-67
2024/02/14 02:53:41;;;;;;;29.42;4.18;;;;;;;0.97;100.00;101019.44;5120541;28;20435;-66
2024/02/14 02:56:07;;;;;;;27.50;3.95;;;;;;;1.39;100.00;101094.41;5102975;28;20088;-66
2024/02/14 02:58:33;;;;;;;28.90;4.07;;;;;;;1.35;100.00;101085.88;5119968;28;20031;-68
2024/02/14 03:00:59;;;;;;;25.80;3.90;;;;;;;1.45;100.00;101093.03;5119748;28;20024;-67
2024/02/14 03:03:27;;;;;;;26.00;3.85;;;;;;;1.49;100.00;101094.44;5100601;28;20142;-66
2024/02/14 03:05:53;;;;;;;39.90;4.63;;;;;;;1.50;100.00;101093.50;5119366;28;20023;-66
2024/02/14 03:08:19;;;;;;;42.72;4.65;;;;;;;1.53;100.00;101098.53;5119654;28;20047;-66
2024/02/14 03:10:45;;;;;;;28.33;4.90;;;;;;;1.54;100.00;101094.91;5120454;28;20034;-66
2024/02/14 03:13:14;;;;;;;34.97;5.10;;;;;;;1.59;100.00;101103.28;5119597;28;20482;-67
2024/02/14 03:15:39;;;;;;;40.17;5.05;;;;;;;1.63;100.00;101105.56;5119395;28;20102;-67
2024/02/14 03:18:09;;;;;;;39.30;5.75;;;;;;;1.54;100.00;101082.47;5120866;28;20051;-66
2024/02/14 03:20:35;;;;;;;38.92;4.95;;;;;;;1.50;100.00;101069.63;5120320;28;20053;-67
2024/02/14 03:23:03;;;;;;;26.58;4.40;;;;;;;1.70;100.00;101103.22;5102396;28;20057;-66
2024/02/14 03:25:29;;;;;;;32.92;4.55;;;;;;;1.72;100.00;101101.25;5120163;28;20027;-66
2024/02/14 03:27:54;;;;;;;34.45;4.85;;;;;;;1.65;100.00;101089.50;5119026;28;20509;-66
2024/02/14 03:30:20;;;;;;;38.35;4.65;;;;;;;1.75;100.00;101100.97;5120261;28;20073;-66
2024/02/14 03:32:49;;;;;;;31.83;5.07;;;;;;;1.79;100.00;101097.09;5120086;28;20028;-67
2024/02/14 03:35:16;;;;;;;35.65;4.80;;;;;;;1.80;100.00;101097.94;5118917;28;20015;-67
2024/02/14 03:37:42;;;;;;;43.45;5.63;;;;;;;1.56;100.00;101061.97;5120214;28;20016;-67
2024/02/14 03:40:09;;;;;;;33.63;5.00;;;;;;;1.83;100.00;101095.00;5119360;28;20539;-67
2024/02/14 03:42:35;;;;;;;40.15;4.95;;;;;;;1.81;100.00;101094.31;5120960;28;20028;-67
2024/02/14 03:45:05;;;;;;;40.10;4.95;;;;;;;1.82;100.00;101099.50;5120113;28;20030;-68
2024/02/14 03:47:33;;;;;;;39.13;5.88;;;;;;;1.75;100.00;101092.19;5118537;28;20114;-67
2024/02/14 03:49:59;;;;;;;39.78;5.30;;;;;;;1.82;100.00;101104.78;5118145;28;20031;-67
2024/02/14 03:52:25;;;;;;;38.25;5.38;;;;;;;1.75;100.00;101094.84;5117853;28;20046;-66
2024/02/14 03:54:50;;;;;;;41.95;5.72;;;;;;;1.82;100.00;101111.88;5119112;27;20031;-66
2024/02/14 03:57:17;;;;;;;37.15;4.97;;;;;;;1.80;100.00;101104.06;5117319;28;20019;-67
2024/02/14 03:59:43;;;;;;;38.40;5.13;;;;;;;1.80;100.00;101095.28;5120343;28;20035;-66
2024/02/14 04:02:10;;;;;;;44.53;5.90;;;;;;;1.79;100.00;101099.75;5119105;28;20055;-66
2024/02/14 04:04:41;;;;;;;35.55;5.28;;;;;;;1.81;100.00;101100.44;5118563;28;20028;-66
2024/02/14 04:07:08;;;;;;;39.88;5.35;;;;;;;1.78;100.00;101100.72;5119669;28;20448;-67
2024/02/14 04:09:34;;;;;;;45.20;5.35;;;;;;;1.80;100.00;101114.69;5118736;28;20057;-67
2024/02/14 04:12:00;;;;;;;38.38;5.78;;;;;;;1.82;100.00;101111.88;5117141;27;20023;-67
2024/02/14 04:14:25;;;;;;;35.17;5.90;;;;;;;1.48;100.00;101053.00;5126165;27;20053;-67
2024/02/14 04:16:50;;;;;;;45.28;6.20;;;;;;;1.81;100.00;101105.75;5108632;28;20066;-67
2024/02/14 04:19:17;;;;;;;40.08;5.88;;;;;;;1.81;100.00;101112.88;5089789;28;20441;-66
2024/02/14 04:21:43;;;;;;;36.50;5.07;;;;;;;1.81;100.00;101111.06;5091665;28;20023;-66
2024/02/14 04:24:08;;;;;;;40.45;5.68;;;;;;;1.82;100.00;101112.75;5107302;28;20039;-66
2024/02/14 04:26:34;;;;;;;40.03;5.60;;;;;;;1.82;100.00;101110.09;5105317;28;20024;-66
2024/02/14 04:29:01;;;;;;;44.67;6.82;;;;;;;1.82;100.00;101112.75;5109687;28;20023;-67
2024/02/14 04:31:26;;;;;;;39.33;5.78;;;;;;;1.81;100.00;101112.88;5118043;28;20250;-66
2024/02/14 04:33:53;;;;;;;38.22;5.78;;;;;;;1.81;100.00;101113.72;5106343;28;20105;-67
2024/02/14 04:36:19;;;;;;;47.08;5.97;;;;;;;1.81;100.00;101115.53;5124511;28;20028;-67
2024/02/14 04:38:46;;;;;;;41.65;6.20;;;;;;;1.80;100.00;101121.81;5127996;28;20048;-66
2024/02/14 04:41:12;;;;;;;41.53;6.03;;;;;;;1.79;100.00;101123.63;5121588;28;20028;-67
2024/02/14 04:43:38;;;;;;;51.20;6.78;;;;;;;1.80;100.00;101119.16;5124465;27;20218;-67
2024/02/14 04:46:06;;;;;;;49.00;7.50;;;;;;;1.64;100.00;101099.28;5116217;28;20027;-66
2024/02/14 04:48:32;;;;;;;38.65;6.60;;;;;;;1.79;100.00;101120.16;5121452;28;20546;-67
2024/02/14 04:50:58;;;;;;;50.38;6.82;;;;;;;1.79;100.00;101120.97;5120790;28;20051;-67
2024/02/14 04:53:23;;;;;;;44.17;6.97;;;;;;;1.81;100.00;101121.66;5107236;28;20062;-67
2024/02/14 04:55:49;;;;;;;40.13;6.43;;;;;;;1.81;100.00;101120.84;5126263;28;20030;-67
2024/02/14 04:58:14;;;;;;;41.53;7.10;;;;;;;1.82;100.00;101126.03;5114021;28;20084;-69
2024/02/14 05:00:39;;;;;;;45.45;8.57;;;;;;;1.82;100.00;101130.47;5112786;28;20046;-70
2024/02/14 05:03:05;;;;;;;41.33;6.55;;;;;;;1.82;100.00;101128.66;5113622;28;20367;-66
2024/02/14 05:05:33;;;;;;;53.05;8.40;;;;;;;1.84;100.00;101131.19;5095978;28;20107;-66
2024/02/14 05:07:59;;;;;;;37.25;6.97;;;;;;;1.82;100.00;101123.38;5084791;28;20024;-66
2024/02/14 05:10:24;;;;;;;38.63;6.30;;;;;;;1.83;100.00;101135.66;5117775;28;20059;-71
2024/02/14 05:12:49;;;;;;;49.53;7.45;;;;;;;1.71;100.00;101115.50;5117362;28;20027;-66
2024/02/14 05:15:15;;;;;;;38.95;7.32;;;;;;;1.80;100.00;101127.13;5121924;28;20032;-66
2024/02/14 05:17:44;;;;;;;47.15;7.15;;;;;;;1.83;100.00;101129.50;5107620;28;20390;-68
2024/02/14 05:20:09;;;;;;;43.92;7.20;;;;;;;1.79;100.00;101130.75;5104239;28;20024;-68
2024/02/14 05:22:37;;;;;;;41.25;7.57;;;;;;;1.84;100.00;101134.66;5118727;28;20394;-68
2024/02/14 05:25:04;;;;;;;50.95;7.95;;;;;;;1.77;100.00;101130.88;5118388;28;20126;-68
2024/02/14 05:27:29;;;;;;;52.15;7.65;;;;;;;1.85;100.00;101144.31;5104257;28;20028;-68
2024/02/14 05:29:55;;;;;;;51.20;8.25;;;;;;;1.85;100.00;101139.03;5125492;28;20039;-66
2024/02/14 05:32:20;;;;;;;46.28;8.65;;;;;;;1.86;100.00;101139.84;5123432;28;20020;-67
2024/02/14 05:34:46;;;;;;;38.97;7.40;;;;;;;1.86;100.00;101138.03;5124208;28;20031;-67
2024/02/14 05:37:11;;;;;;;51.05;8.10;;;;;;;1.88;100.00;101135.22;5123839;28;20035;-66
2024/02/14 05:39:37;;;;;;;35.17;7.85;;;;;;;1.87;100.00;101137.06;5113335;28;20035;-67
2024/02/14 05:42:04;;;;;;;44.85;7.93;;;;;;;1.84;100.00;101142.63;5112158;28;20034;-66
2024/02/14 05:44:31;;;;;;;38.88;8.75;;;;;;;1.86;100.00;101142.50;5110153;28;20032;-67
2024/02/14 05:47:00;;;;;;;52.95;9.38;;;;;;;1.88;100.00;101156.47;5103105;28;20055;-66
2024/02/14 05:49:25;;;;;;;44.08;9.27;;;;;;;1.88;100.00;101149.34;5102073;28;20115;-66
2024/02/14 05:51:53;;;;;;;47.88;8.82;;;;;;;1.75;100.00;101131.97;5099111;28;20081;-65
2024/02/14 05:54:18;;;;;;;48.22;8.25;;;;;;;1.88;100.00;101157.28;5101308;28;20028;-65
2024/02/14 05:56:44;;;;;;;47.40;9.20;;;;;;;1.90;100.00;101159.00;5103499;28;20028;-65
2024/02/14 05:59:10;;;;;;;48.40;8.77;;;;;;;1.89;100.00;101160.81;5103430;28;20054;-65
2024/02/14 06:01:35;;;;;;;45.20;8.05;;;;;;;1.82;100.00;101155.22;5119499;28;20024;-66
2024/02/14 06:04:01;;;;;;;47.47;9.07;;;;;;;1.91;100.00;101163.31;5125334;28;20088;-68
2024/02/14 06:06:26;;;;;;;49.00;9.57;;;;;;;1.92;100.00;101165.84;5121707;28;20051;-65
2024/02/14 06:08:52;;;;;;;44.50;10.10;;;;;;;1.92;100.00;101165.84;5114108;28;20034;-65
2024/02/14 06:11:20;;;;;;;48.33;9.35;;;;;;;1.93;100.00;101164.03;5114631;28;20020;-65
2024/02/14 06:13:49;;;;;;;43.67;8.85;;;;;;;1.93;100.00;101172.84;5114250;28;20084;-66
2024/02/14 06:16:15;;;;;;;41.45;9.00;;;;;;;1.94;100.00;101173.66;5113623;28;20012;-69
2024/02/14 06:18:40;;;;;;;42.55;8.48;;;;;;;1.95;100.00;101175.34;5115255;28;20050;-66
2024/02/14 06:21:06;;;;;;;44.65;9.40;;;;;;;1.95;100.00;101167.38;5118497;28;20055;-68
2024/02/14 06:23:33;;;;;;;42.90;9.75;;;;;;;1.96;100.00;101177.03;5118228;28;20100;-66
2024/02/14 06:25:59;;;;;;;41.65;9.38;;;;;;;1.84;100.00;101153.25;5121772;27;20035;-66
2024/02/14 06:28:24;;;;;;;41.60;9.40;;;;;;;1.99;100.00;101177.63;5121665;28;20394;-65
2024/02/14 06:30:50;;;;;;;40.38;8.88;;;;;;;2.00;100.00;101186.41;5114181;28;20494;-66
2024/02/14 06:33:15;;;;;;;34.30;8.18;;;;;;;2.00;100.00;101181.09;5110205;28;20115;-65
2024/02/14 06:35:40;;;;;;;34.65;9.38;;;;;;;2.01;100.00;101180.13;5112432;28;20483;-66
2024/02/14 06:38:06;;;;;;;44.53;9.75;;;;;;;2.04;100.00;101187.81;5109509;28;20056;-66
2024/02/14 06:40:32;;;;;;;40.58;8.93;;;;;;;1.97;100.00;101184.84;5109212;28;20043;-65
2024/02/14 06:42:59;;;;;;;36.30;8.98;;;;;;;1.84;100.00;101177.13;5120103;28;20028;-66
2024/02/14 06:45:25;;;;;;;37.75;8.25;;;;;;;1.99;100.00;101196.19;5121409;28;20041;-65
2024/02/14 06:47:51;;;;;;;37.20;8.48;;;;;;;2.04;100.00;101209.88;5120326;28;20029;-66
2024/02/14 06:50:16;;;;;;;34.65;7.90;;;;;;;2.05;100.00;101208.94;5092672;28;20123;-73
2024/02/14 06:52:41;;;;;;;33.53;7.72;;;;;;;2.06;100.00;101207.94;5103052;28;20406;-70
2024/02/14 06:55:07;;;;;;;45.63;8.20;;;;;;;2.07;100.00;101208.78;5114600;28;20023;-65
2024/02/14 06:57:33;;;;;;;34.53;8.18;;;;;;;2.07;100.00;101206.97;5105039;28;20405;-67
2024/02/14 06:59:58;;;;;;;33.25;7.43;;;;;;;2.07;100.00;101214.94;5104762;28;20175;-65
2024/02/14 07:02:27;;;;;;;32.95;7.80;;;;;;;2.10;100.00;101219.97;5104123;28;20505;-65
2024/02/14 07:04:53;;;;;;;34.13;7.78;;;;;;;1.56;100.00;101128.28;5100485;28;20107;-65
2024/02/14 07:07:19;;;;;;;35.55;8.23;;;;;;;2.14;100.00;101219.72;5102249;28;20074;-65
2024/02/14 07:09:44;;;;;;;37.38;7.82;;;;;;;2.13;100.00;101220.69;5105411;28;20031;-66
2024/02/14 07:12:09;;;;;;;27.77;6.63;;;;;;;2.09;100.00;101218.31;5107820;28;20031;-65
2024/02/14 07:14:35;;;;;;;27.02;6.97;;;;;;;2.13;100.00;101226.84;5107842;28;20039;-69
2024/02/14 07:17:01;;;;;;;31.20;7.57;;;;;;;2.01;100.00;101211.97;5106057;28;20478;-67
2024/02/14 07:19:27;;;;;;;35.47;7.55;;;;;;;2.16;100.00;101226.56;5108393;28;20092;-66
2024/02/14 07:21:53;;;;;;;28.33;7.90;;;;;;;2.18;100.00;101221.09;5111228;28;20024;-66
2024/02/14 07:24:18;;;;;;;33.50;7.68;;;;;;;2.19;100.00;101226.31;5106099;28;20024;-67
2024/02/14 07:26:44;;;;;;;30.45;8.95;;;;;;;1.77;100.00;101161.88;5100196;28;20028;-66
2024/02/14 07:29:10;;;;;;;36.65;9.13;;;;;;;2.21;100.00;101227.00;5101729;28;20452;-66
2024/02/14 07:31:35;;;;;;;31.38;8.63;;;;;;;2.22;100.00;101235.78;5101461;28;20028;-66
2024/02/14 07:34:03;;;;;;;30.75;7.93;;;;;;;2.27;100.00;101234.41;5103051;28;20032;-67
2024/02/14 07:36:32;;;;;;;31.60;9.18;;;;;;;2.27;100.00;101229.13;5102770;28;20020;-66
2024/02/14 07:38:57;;;;;;;36.35;9.52;;;;;;;2.31;100.00;101233.16;5103636;28;20048;-66
2024/02/14 07:41:23;;;;;;;29.10;8.98;;;;;;;2.35;100.00;101231.94;5103585;28;20042;-66
2024/02/14 07:43:48;;;;;;;27.52;8.35;;;;;;;2.38;100.00;101224.66;5068970;28;20054;-66
2024/02/14 07:46:18;;;;;;;29.02;8.57;;;;;;;2.43;100.00;101238.41;5102124;28;20024;-66
2024/02/14 07:48:44;;;;;;;28.65;8.68;;;;;;;2.45;100.00;101237.28;5101639;28;20051;-67
2024/02/14 07:51:09;;;;;;;27.80;9.50;;;;;;;2.48;100.00;101234.34;5102975;28;20051;-66
2024/02/14 07:53:35;;;;;;;28.73;9.52;;;;;;;2.50;100.00;101231.56;5104044;28;20048;-65
2024/02/14 07:56:02;;;;;;;34.83;10.57;;;;;;;2.57;100.00;101238.00;5103895;28;20511;-66
2024/02/14 07:58:28;;;;;;;27.45;11.00;;;;;;;2.61;100.00;101236.75;5102583;28;20024;-67
2024/02/14 08:00:53;;;;;;;34.35;11.60;;;;;;;2.64;100.00;101233.81;5101831;28;20036;-66
2024/02/14 08:03:18;;;;;;;30.95;11.82;;;;;;;2.66;100.00;101233.69;5099629;28;20038;-67
2024/02/14 08:05:44;;;;;;;36.33;13.27;;;;;;;2.67;100.00;101246.00;5099518;28;20038;-66
2024/02/14 08:08:10;;;;;;;33.20;12.52;;;;;;;2.65;100.00;101232.88;5103111;28;20035;-66
2024/02/14 08:10:35;;;;;;;33.28;12.60;;;;;;;2.69;100.00;101250.19;5101461;28;20045;-67
2024/02/14 08:13:04;;;;;;;28.90;14.00;;;;;;;2.72;100.00;101247.28;5099234;28;20044;-66
2024/02/14 08:15:29;;;;;;;32.85;13.98;;;;;;;2.77;100.00;101246.84;5099943;28;20028;-66
2024/02/14 08:17:56;;;;;;;30.30;13.43;;;;;;;2.82;100.00;101253.44;5100381;28;20154;-67
2024/02/14 08:20:22;;;;;;;36.15;14.65;;;;;;;2.85;100.00;101249.69;5099355;28;20034;-66
2024/02/14 08:22:48;;;;;;;33.95;14.65;;;;;;;2.80;100.00;101247.41;5099794;28;20032;-66
2024/02/14 08:25:14;;;;;;;35.60;14.05;;;;;;;2.89;100.00;101250.25;5099328;28;20046;-66
2024/02/14 08:27:39;;;;;;;31.70;14.63;;;;;;;2.91;100.00;101251.75;5100347;28;20046;-67
2024/02/14 08:30:06;;;;;;;34.30;15.50;;;;;;;2.96;100.00;101251.34;5098642;28;20040;-65
2024/02/14 08:32:34;;;;;;;34.05;14.90;;;;;;;3.00;100.00;101252.75;5099258;28;20031;-66
2024/02/14 08:34:59;;;;;;;30.58;14.15;;;;;;;3.03;100.00;101252.47;5099271;28;20024;-67
2024/02/14 08:37:24;;;;;;;31.38;15.07;;;;;;;3.04;100.00;101251.50;5098763;28;20036;-66
2024/02/14 08:39:50;;;;;;;34.75;14.98;;;;;;;3.09;100.00;101249.25;5099126;28;20525;-67
2024/02/14 08:42:15;;;;;;;30.38;15.05;;;;;;;3.05;100.00;101237.25;5101206;28;20028;-66
2024/02/14 08:44:41;;;;;;;25.60;13.90;;;;;;;3.20;100.00;101251.78;5100638;28;20255;-65
2024/02/14 08:47:08;;;;;;;29.10;14.95;;;;;;;3.23;100.00;101256.81;5099449;28;20032;-66
2024/02/14 08:49:34;;;;;;;29.42;14.57;;;;;;;3.28;100.00;101261.72;5099060;28;20047;-66
2024/02/14 08:51:59;;;;;;;32.13;14.75;;;;;;;3.29;100.00;101261.56;5082749;28;20402;-68
2024/02/14 08:54:25;;;;;;;28.42;14.43;;;;;;;3.30;100.00;101271.22;5101081;28;20039;-66
2024/02/14 08:56:55;;;;;;;33.00;15.18;;;;;;;3.11;100.00;101236.66;5099391;28;20406;-67
2024/02/14 08:59:20;;;;;;;25.10;14.35;;;;;;;3.35;100.00;101265.50;5099553;28;20039;-66
2024/02/14 09:01:46;;;;;;;27.65;13.40;;;;;;;3.39;100.00;101266.91;5082463;28;20112;-71
2024/02/14 09:04:11;;;;;;;30.30;14.98;;;;;;;3.48;100.00;101267.88;5099281;28;20044;-66
2024/02/14 09:06:39;;;;;;;32.63;14.65;;;;;;;3.52;100.00;101264.78;5099146;28;20028;-67
2024/02/14 09:09:04;;;;;;;27.00;14.40;;;;;;;3.52;100.00;101266.59;5100096;28;20058;-66
2024/02/14 09:11:31;;;;;;;27.75;13.95;;;;;;;3.47;100.00;101267.00;5082962;28;20032;-66
2024/02/14 09:14:02;;;;;;;27.40;13.52;;;;;;;3.47;100.00;101276.81;5101069;28;20055;-69
2024/02/14 09:16:28;;;;;;;28.40;13.38;;;;;;;3.43;100.00;101270.09;5099936;28;20028;-66
2024/02/14 09:18:53;;;;;;;27.25;12.68;;;;;;;3.27;100.00;101239.59;5082685;28;20078;-66
2024/02/14 09:21:19;;;;;;;23.90;13.02;;;;;;;3.50;100.00;101265.91;5099971;28;20103;-67
2024/02/14 09:23:47;;;;;;;26.42;13.63;;;;;;;3.58;100.00;101259.88;5083098;28;20032;-66
2024/02/14 09:26:12;;;;;;;25.70;14.15;;;;;;;3.57;100.00;101251.03;5100844;28;20028;-65
2024/02/14 09:28:40;;;;;;;24.90;13.35;;;;;;;3.65;100.00;101266.31;5083157;28;20094;-75
2024/02/14 09:31:06;;;;;;;28.75;13.32;;;;;;;3.61;100.00;101251.59;5100327;28;20043;-67
2024/02/14 09:33:31;;;;;;;29.35;13.32;;;;;;;3.63;100.00;101261.13;5100924;28;20016;-73
2024/02/14 09:35:56;;;;;;;28.85;13.20;;;;;;;3.66;100.00;101268.81;5082364;28;20028;-73
2024/02/14 09:38:22;;;;;;;22.95;12.43;;;;;;;3.72;100.00;101273.56;5081583;28;20080;-66
2024/02/14 09:40:53;;;;;;;28.40;13.23;;;;;;;3.66;100.00;101247.53;5082458;28;20062;-67
2024/02/14 09:43:32;;;;;;;27.08;13.35;;;;;;;3.86;100.00;101269.63;5099933;28;20030;-67
2024/02/14 09:45:58;;;;;;;29.45;13.95;;;;;;;3.91;100.00;101269.22;5082232;28;20024;-66
2024/02/14 09:48:23;;;;;;;26.13;13.65;;;;;;;4.04;100.00;101275.06;5099887;28;20032;-66
2024/02/14 09:50:49;;;;;;;32.40;13.40;;;;;;;4.11;100.00;101265.50;5100263;28;20028;-69
2024/02/14 09:53:16;;;;;;;24.15;13.82;;;;;;;4.19;100.00;101272.75;5100136;28;20081;-66
2024/02/14 09:55:42;;;;;;;28.77;13.93;;;;;;;4.20;100.00;101277.91;5099108;28;20035;-66
2024/02/14 09:58:07;;;;;;;24.80;13.63;;;;;;;4.15;100.00;101280.19;5099340;28;20030;-67
2024/02/14 10:00:35;;;;;;;25.60;13.15;;;;;;;4.18;100.00;101282.56;5098678;28;20020;-67
2024/02/14 10:03:00;;;;;;;24.75;12.77;;;;;;;4.12;100.00;101277.81;5077161;28;20486;-66
2024/02/14 10:05:26;;;;;;;21.73;13.13;;;;;;;4.12;100.00;101282.31;5081081;28;20046;-66
2024/02/14 10:07:51;;;;;;;21.67;12.35;;;;;;;4.25;100.00;101285.47;5099661;28;20028;-66
2024/02/14 10:10:17;;;;;;;18.65;12.25;;;;;;;4.22;100.00;101294.59;5098023;28;20111;-67
2024/02/14 10:12:42;;;;;;;17.67;12.15;;;;;;;3.93;100.00;101249.41;5099463;28;20126;-66
2024/02/14 10:15:09;;;;;;;17.95;12.13;;;;;;;4.20;100.00;101299.22;5100526;28;20016;-66
2024/02/14 10:17:36;;;;;;;17.92;11.93;;;;;;;4.14;100.00;101291.84;5096497;28;20038;-68
2024/02/14 10:20:05;;;;;;;15.63;11.77;;;;;;;4.04;100.00;101274.19;5102212;28;20024;-68
2024/02/14 10:22:35;;;;;;;16.67;11.32;;;;;;;4.08;100.00;101289.75;5085809;28;20020;-66
2024/02/14 10:25:11;;;;;;;19.67;11.48;;;;;;;3.97;100.00;101280.13;5101183;28;20506;-66
2024/02/14 10:27:40;;;;;;;18.83;11.63;;;;;;;4.09;100.00;101293.25;5102544;28;20028;-67
2024/02/14 10:30:10;;;;;;;19.13;11.45;;;;;;;4.11;100.00;101292.13;5102677;28;20028;-67
2024/02/14 10:32:52;;;;;;;20.50;11.80;;;;;;;4.20;100.00;101296.56;5102149;28;20091;-66
2024/02/14 10:35:24;;;;;;;21.15;12.07;;;;;;;4.23;100.00;101292.75;5102021;28;20372;-66
2024/02/14 10:37:49;;;;;;;22.38;12.35;;;;;;;4.30;100.00;101290.34;5102441;28;20159;-67
2024/02/14 10:40:15;;;;;;;26.95;13.60;;;;;;;4.34;100.00;101295.28;5101342;28;20039;-67
2024/02/14 10:42:40;;;;;;;29.30;14.48;;;;;;;4.19;100.00;101270.09;5100953;28;20032;-67
2024/02/14 10:45:06;;;;;;;27.38;14.25;;;;;;;4.38;100.00;101299.31;5101140;28;20111;-66
2024/02/14 10:47:35;;;;;;;36.13;14.50;;;;;;;4.40;100.00;101299.16;5102528;28;20043;-71
2024/02/14 10:50:02;;;;;;;32.38;16.70;;;;;;;4.33;100.00;101295.41;5102067;28;20463;-67
2024/02/14 10:52:35;;;;;;;38.13;16.75;;;;;;;4.32;100.00;101288.41;5101971;28;20024;-66
2024/02/14 10:55:05;;;;;;;46.80;17.02;;;;;;;4.32;100.00;101286.56;5100339;28;20493;-66
2024/02/14 10:57:32;;;;;;;43.38;17.88;;;;;;;4.32;100.00;101289.22;5098452;28;20115;-75
2024/02/14 11:00:01;;;;;;;42.78;17.55;;;;;;;4.25;100.00;101288.16;5098630;28;20024;-66
2024/02/14 11:02:30;;;;;;;39.55;17.25;;;;;;;4.20;100.00;101285.91;5102844;28;20020;-67
2024/02/14 11:04:56;;;;;;;49.50;18.25;;;;;;;4.17;100.00;101280.03;5103057;28;20115;-66
2024/02/14 11:07:24;;;;;;;46.15;17.98;;;;;;;4.06;100.00;101278.38;5101826;28;20028;-67
2024/02/14 11:10:07;;;;;;;48.08;18.08;;;;;;;4.13;100.00;101282.16;5103252;28;20083;-66